sensor_id;sensor_type;location;lat;lon;timestamp;P1;durP1;ratioP1;P2;durP2;ratioP2
2396;SDS011;1209;48.410;9.054;2024-01-15T00:01:58;12.53;;;6.87;;
2396;SDS011;1209;48.410;9.054;2024-01-15T00:04:24;11.20;;;5.43;;
2396;SDS011;1209;48.410;9.054;2024-01-15T00:06:49;19.37;;;8.43;;
2396;SDS011;1209;48.410;9.054;2024-01-15T00:09:16;12.20;;;7.10;;
2396;SDS011;1209;48.410;9.054;2024-01-15T00:11:41;17.35;;;7.75;;
2396;SDS011;1209;48.410;9.054;2024-01-15T00:14:07;9.63;;;6.07;;
2396;SDS011;1209;48.410;9.054;2024-01-15T00:16:33;17.92;;;8.95;;
2396;SDS011;1209;48.410;9.054;2024-01-15T00:18:58;23.63;;;9.30;;
2396;SDS011;1209;48.410;9.054;2024-01-15T00:21:24;19.70;;;9.00;;
2396;SDS011;1209;48.410;9.054;2024-01-15T00:23:49;18.63;;;8.63;;
2396;SDS011;1209;48.410;9.054;2024-01-15T00:26:14;17.23;;;7.80;;
2396;SDS011;1209;48.410;9.054;2024-01-15T00:28:40;20.77;;;8.77;;
2396;SDS011;1209;48.410;9.054;2024-01-15T00:31:05;20.63;;;9.03;;
2396;SDS011;1209;48.410;9.054;2024-01-15T00:33:31;15.90;;;7.87;;
2396;SDS011;1209;48.410;9.054;2024-01-15T00:35:56;17.30;;;7.00;;
2396;SDS011;1209;48.410;9.054;2024-01-15T00:38:21;22.80;;;10.20;;
2396;SDS011;1209;48.410;9.054;2024-01-15T00:40:46;29.00;;;9.10;;
2396;SDS011;1209;48.410;9.054;2024-01-15T00:43:12;19.27;;;8.03;;
2396;SDS011;1209;48.410;9.054;2024-01-15T00:45:37;17.33;;;8.20;;
2396;SDS011;1209;48.410;9.054;2024-01-15T00:48:03;17.67;;;7.73;;
2396;SDS011;1209;48.410;9.054;2024-01-15T00:50:29;14.27;;;7.53;;
2396;SDS011;1209;48.410;9.054;2024-01-15T00:52:54;26.63;;;9.53;;
2396;SDS011;1209;48.410;9.054;2024-01-15T00:55:19;21.77;;;8.70;;
2396;SDS011;1209;48.410;9.054;2024-01-15T00:57:45;19.00;;;9.27;;
2396;SDS011;1209;48.410;9.054;2024-01-15T01:00:10;16.37;;;8.27;;
2396;SDS011;1209;48.410;9.054;2024-01-15T01:02:36;15.52;;;8.30;;
2396;SDS011;1209;48.410;9.054;2024-01-15T01:05:02;17.23;;;7.90;;
2396;SDS011;1209;48.410;9.054;2024-01-15T01:07:28;17.92;;;7.32;;
2396;SDS011;1209;48.410;9.054;2024-01-15T01:09:53;12.70;;;6.80;;
2396;SDS011;1209;48.410;9.054;2024-01-15T01:12:19;14.43;;;7.60;;
2396;SDS011;1209;48.410;9.054;2024-01-15T01:14:44;23.93;;;8.73;;
2396;SDS011;1209;48.410;9.054;2024-01-15T01:17:09;21.30;;;8.40;;
2396;SDS011;1209;48.410;9.054;2024-01-15T01:19:34;14.47;;;8.10;;
2396;SDS011;1209;48.410;9.054;2024-01-15T01:22:00;19.83;;;7.80;;
2396;SDS011;1209;48.410;9.054;2024-01-15T01:24:25;16.10;;;8.40;;
2396;SDS011;1209;48.410;9.054;2024-01-15T01:26:50;13.83;;;7.60;;
2396;SDS011;1209;48.410;9.054;2024-01-15T01:29:16;18.53;;;8.30;;
2396;SDS011;1209;48.410;9.054;2024-01-15T01:31:44;16.07;;;6.27;;
2396;SDS011;1209;48.410;9.054;2024-01-15T01:34:10;19.10;;;6.95;;
2396;SDS011;1209;48.410;9.054;2024-01-15T01:36:39;13.05;;;7.80;;
2396;SDS011;1209;48.410;9.054;2024-01-15T01:39:04;15.93;;;7.70;;
2396;SDS011;1209;48.410;9.054;2024-01-15T01:41:30;16.30;;;6.65;;
2396;SDS011;1209;48.410;9.054;2024-01-15T01:43:55;14.53;;;6.37;;
2396;SDS011;1209;48.410;9.054;2024-01-15T01:46:21;16.73;;;7.03;;
2396;SDS011;1209;48.410;9.054;2024-01-15T01:48:46;14.87;;;7.10;;
2396;SDS011;1209;48.410;9.054;2024-01-15T01:51:13;15.63;;;7.10;;
2396;SDS011;1209;48.410;9.054;2024-01-15T01:53:39;13.77;;;7.28;;
2396;SDS011;1209;48.410;9.054;2024-01-15T01:56:04;14.93;;;7.77;;
2396;SDS011;1209;48.410;9.054;2024-01-15T01:58:31;13.55;;;7.30;;
2396;SDS011;1209;48.410;9.054;2024-01-15T02:00:57;18.05;;;7.93;;
2396;SDS011;1209;48.410;9.054;2024-01-15T02:03:24;19.23;;;7.40;;
2396;SDS011;1209;48.410;9.054;2024-01-15T02:05:49;18.43;;;7.30;;
2396;SDS011;1209;48.410;9.054;2024-01-15T02:08:16;12.45;;;6.90;;
2396;SDS011;1209;48.410;9.054;2024-01-15T02:10:42;12.60;;;6.00;;
2396;SDS011;1209;48.410;9.054;2024-01-15T02:13:07;18.27;;;6.83;;
2396;SDS011;1209;48.410;9.054;2024-01-15T02:15:32;18.67;;;7.10;;
2396;SDS011;1209;48.410;9.054;2024-01-15T02:20:27;13.88;;;5.93;;
2396;SDS011;1209;48.410;9.054;2024-01-15T02:22:53;19.63;;;6.97;;
2396;SDS011;1209;48.410;9.054;2024-01-15T02:25:18;12.40;;;5.50;;
2396;SDS011;1209;48.410;9.054;2024-01-15T02:27:44;19.77;;;7.07;;
2396;SDS011;1209;48.410;9.054;2024-01-15T02:30:11;13.02;;;7.55;;
2396;SDS011;1209;48.410;9.054;2024-01-15T02:32:37;19.00;;;7.57;;
2396;SDS011;1209;48.410;9.054;2024-01-15T02:35:02;19.73;;;7.30;;
2396;SDS011;1209;48.410;9.054;2024-01-15T02:37:27;15.67;;;7.17;;
2396;SDS011;1209;48.410;9.054;2024-01-15T02:39:53;16.23;;;6.73;;
2396;SDS011;1209;48.410;9.054;2024-01-15T02:42:18;14.23;;;7.50;;
2396;SDS011;1209;48.410;9.054;2024-01-15T02:44:43;18.40;;;6.70;;
2396;SDS011;1209;48.410;9.054;2024-01-15T02:47:08;14.10;;;6.27;;
2396;SDS011;1209;48.410;9.054;2024-01-15T02:49:34;17.37;;;6.83;;
2396;SDS011;1209;48.410;9.054;2024-01-15T02:51:59;12.97;;;5.57;;
2396;SDS011;1209;48.410;9.054;2024-01-15T02:54:24;12.97;;;6.17;;
2396;SDS011;1209;48.410;9.054;2024-01-15T02:56:50;17.53;;;5.90;;
2396;SDS011;1209;48.410;9.054;2024-01-15T02:59:15;11.93;;;5.53;;
2396;SDS011;1209;48.410;9.054;2024-01-15T03:01:40;13.27;;;6.83;;
2396;SDS011;1209;48.410;9.054;2024-01-15T03:04:06;16.93;;;7.00;;
2396;SDS011;1209;48.410;9.054;2024-01-15T03:06:31;16.67;;;5.70;;
2396;SDS011;1209;48.410;9.054;2024-01-15T03:08:56;13.27;;;5.30;;
2396;SDS011;1209;48.410;9.054;2024-01-15T03:11:22;18.10;;;6.43;;
2396;SDS011;1209;48.410;9.054;2024-01-15T03:13:47;17.90;;;6.53;;
2396;SDS011;1209;48.410;9.054;2024-01-15T03:16:12;14.67;;;6.37;;
2396;SDS011;1209;48.410;9.054;2024-01-15T03:18:37;12.63;;;5.57;;
2396;SDS011;1209;48.410;9.054;2024-01-15T03:21:03;11.40;;;4.70;;
2396;SDS011;1209;48.410;9.054;2024-01-15T03:23:30;14.23;;;6.15;;
2396;SDS011;1209;48.410;9.054;2024-01-15T03:25:55;14.80;;;6.03;;
2396;SDS011;1209;48.410;9.054;2024-01-15T03:28:20;11.20;;;5.63;;
2396;SDS011;1209;48.410;9.054;2024-01-15T03:30:45;11.87;;;5.83;;
2396;SDS011;1209;48.410;9.054;2024-01-15T03:33:11;12.40;;;6.83;;
2396;SDS011;1209;48.410;9.054;2024-01-15T03:35:36;8.20;;;5.50;;
2396;SDS011;1209;48.410;9.054;2024-01-15T03:38:01;14.90;;;6.07;;
2396;SDS011;1209;48.410;9.054;2024-01-15T03:40:27;21.43;;;7.23;;
2396;SDS011;1209;48.410;9.054;2024-01-15T03:42:53;16.00;;;5.97;;
2396;SDS011;1209;48.410;9.054;2024-01-15T03:45:18;16.75;;;7.60;;
2396;SDS011;1209;48.410;9.054;2024-01-15T03:47:44;16.20;;;5.90;;
2396;SDS011;1209;48.410;9.054;2024-01-15T03:50:09;12.40;;;6.20;;
2396;SDS011;1209;48.410;9.054;2024-01-15T03:52:34;14.53;;;6.30;;
2396;SDS011;1209;48.410;9.054;2024-01-15T03:55:00;12.43;;;6.17;;
2396;SDS011;1209;48.410;9.054;2024-01-15T03:57:25;11.90;;;7.20;;
2396;SDS011;1209;48.410;9.054;2024-01-15T03:59:50;18.73;;;6.97;;
2396;SDS011;1209;48.410;9.054;2024-01-15T04:02:16;15.83;;;5.73;;
2396;SDS011;1209;48.410;9.054;2024-01-15T04:04:42;11.23;;;6.23;;
2396;SDS011;1209;48.410;9.054;2024-01-15T04:07:08;14.75;;;7.38;;
2396;SDS011;1209;48.410;9.054;2024-01-15T04:09:37;12.00;;;5.85;;
2396;SDS011;1209;48.410;9.054;2024-01-15T04:12:02;17.07;;;6.80;;
2396;SDS011;1209;48.410;9.054;2024-01-15T04:14:28;18.23;;;6.63;;
2396;SDS011;1209;48.410;9.054;2024-01-15T04:16:53;14.93;;;5.93;;
2396;SDS011;1209;48.410;9.054;2024-01-15T04:19:19;15.13;;;6.60;;
2396;SDS011;1209;48.410;9.054;2024-01-15T04:21:44;12.33;;;6.00;;
2396;SDS011;1209;48.410;9.054;2024-01-15T04:24:09;15.83;;;6.20;;
2396;SDS011;1209;48.410;9.054;2024-01-15T04:26:35;19.13;;;6.40;;
2396;SDS011;1209;48.410;9.054;2024-01-15T04:29:00;12.70;;;6.83;;
2396;SDS011;1209;48.410;9.054;2024-01-15T04:31:25;18.83;;;5.60;;
2396;SDS011;1209;48.410;9.054;2024-01-15T04:33:52;14.40;;;5.65;;
2396;SDS011;1209;48.410;9.054;2024-01-15T04:36:17;18.33;;;7.90;;
2396;SDS011;1209;48.410;9.054;2024-01-15T04:38:42;13.03;;;6.60;;
2396;SDS011;1209;48.410;9.054;2024-01-15T04:41:11;24.10;;;7.30;;
2396;SDS011;1209;48.410;9.054;2024-01-15T04:43:37;16.35;;;6.78;;
2396;SDS011;1209;48.410;9.054;2024-01-15T04:46:03;16.87;;;6.37;;
2396;SDS011;1209;48.410;9.054;2024-01-15T04:48:30;17.10;;;6.45;;
2396;SDS011;1209;48.410;9.054;2024-01-15T04:50:56;16.63;;;6.50;;
2396;SDS011;1209;48.410;9.054;2024-01-15T04:53:21;13.80;;;6.93;;
2396;SDS011;1209;48.410;9.054;2024-01-15T04:55:46;15.43;;;5.90;;
2396;SDS011;1209;48.410;9.054;2024-01-15T04:58:11;11.00;;;6.17;;
2396;SDS011;1209;48.410;9.054;2024-01-15T05:00:37;13.47;;;6.70;;
2396;SDS011;1209;48.410;9.054;2024-01-15T05:03:02;10.47;;;6.50;;
2396;SDS011;1209;48.410;9.054;2024-01-15T05:05:28;14.50;;;6.07;;
2396;SDS011;1209;48.410;9.054;2024-01-15T05:07:53;13.00;;;5.90;;
2396;SDS011;1209;48.410;9.054;2024-01-15T05:10:18;14.47;;;6.40;;
2396;SDS011;1209;48.410;9.054;2024-01-15T05:12:44;15.40;;;8.17;;
2396;SDS011;1209;48.410;9.054;2024-01-15T05:15:09;16.70;;;6.73;;
2396;SDS011;1209;48.410;9.054;2024-01-15T05:17:34;19.00;;;6.47;;
2396;SDS011;1209;48.410;9.054;2024-01-15T05:20:00;12.97;;;8.00;;
2396;SDS011;1209;48.410;9.054;2024-01-15T05:22:25;16.00;;;7.10;;
2396;SDS011;1209;48.410;9.054;2024-01-15T05:24:50;13.73;;;6.43;;
2396;SDS011;1209;48.410;9.054;2024-01-15T05:27:15;17.93;;;7.67;;
2396;SDS011;1209;48.410;9.054;2024-01-15T05:29:41;16.60;;;7.67;;
2396;SDS011;1209;48.410;9.054;2024-01-15T05:32:06;12.83;;;7.20;;
2396;SDS011;1209;48.410;9.054;2024-01-15T05:34:31;21.83;;;8.13;;
2396;SDS011;1209;48.410;9.054;2024-01-15T05:36:57;13.60;;;7.97;;
2396;SDS011;1209;48.410;9.054;2024-01-15T05:39:22;16.40;;;7.33;;
2396;SDS011;1209;48.410;9.054;2024-01-15T05:41:47;12.73;;;7.00;;
2396;SDS011;1209;48.410;9.054;2024-01-15T05:44:12;17.03;;;7.70;;
2396;SDS011;1209;48.410;9.054;2024-01-15T05:46:38;15.77;;;7.60;;
2396;SDS011;1209;48.410;9.054;2024-01-15T05:49:03;16.57;;;7.47;;
2396;SDS011;1209;48.410;9.054;2024-01-15T05:51:29;13.50;;;6.93;;
2396;SDS011;1209;48.410;9.054;2024-01-15T05:53:54;16.57;;;8.10;;
2396;SDS011;1209;48.410;9.054;2024-01-15T05:56:19;14.93;;;7.97;;
2396;SDS011;1209;48.410;9.054;2024-01-15T05:58:44;14.67;;;7.90;;
2396;SDS011;1209;48.410;9.054;2024-01-15T06:01:10;17.03;;;8.77;;
2396;SDS011;1209;48.410;9.054;2024-01-15T06:03:35;15.33;;;7.00;;
2396;SDS011;1209;48.410;9.054;2024-01-15T06:06:00;17.20;;;7.20;;
2396;SDS011;1209;48.410;9.054;2024-01-15T06:08:25;16.93;;;6.90;;
2396;SDS011;1209;48.410;9.054;2024-01-15T06:10:52;15.88;;;6.68;;
2396;SDS011;1209;48.410;9.054;2024-01-15T06:13:18;15.67;;;6.40;;
2396;SDS011;1209;48.410;9.054;2024-01-15T06:15:43;14.03;;;6.47;;
2396;SDS011;1209;48.410;9.054;2024-01-15T06:18:08;12.50;;;6.73;;
2396;SDS011;1209;48.410;9.054;2024-01-15T06:20:33;9.67;;;6.13;;
2396;SDS011;1209;48.410;9.054;2024-01-15T06:22:59;16.33;;;7.60;;
2396;SDS011;1209;48.410;9.054;2024-01-15T06:25:24;14.50;;;7.03;;
2396;SDS011;1209;48.410;9.054;2024-01-15T06:27:49;11.83;;;7.33;;
2396;SDS011;1209;48.410;9.054;2024-01-15T06:30:15;12.83;;;7.03;;
2396;SDS011;1209;48.410;9.054;2024-01-15T06:32:40;12.03;;;5.47;;
2396;SDS011;1209;48.410;9.054;2024-01-15T06:35:05;11.27;;;5.40;;
2396;SDS011;1209;48.410;9.054;2024-01-15T06:37:31;16.30;;;6.10;;
2396;SDS011;1209;48.410;9.054;2024-01-15T06:39:57;12.57;;;6.10;;
2396;SDS011;1209;48.410;9.054;2024-01-15T06:42:23;14.53;;;7.47;;
2396;SDS011;1209;48.410;9.054;2024-01-15T06:44:48;10.97;;;6.37;;
2396;SDS011;1209;48.410;9.054;2024-01-15T06:47:14;13.83;;;6.43;;
2396;SDS011;1209;48.410;9.054;2024-01-15T06:49:39;11.90;;;6.10;;
2396;SDS011;1209;48.410;9.054;2024-01-15T06:52:05;10.10;;;6.40;;
2396;SDS011;1209;48.410;9.054;2024-01-15T06:54:31;11.68;;;6.57;;
2396;SDS011;1209;48.410;9.054;2024-01-15T06:56:56;9.63;;;5.37;;
2396;SDS011;1209;48.410;9.054;2024-01-15T06:59:21;10.13;;;5.03;;
2396;SDS011;1209;48.410;9.054;2024-01-15T07:01:47;13.23;;;5.27;;
2396;SDS011;1209;48.410;9.054;2024-01-15T07:04:12;13.97;;;5.90;;
2396;SDS011;1209;48.410;9.054;2024-01-15T07:06:38;13.77;;;6.23;;
2396;SDS011;1209;48.410;9.054;2024-01-15T07:09:03;10.37;;;5.30;;
2396;SDS011;1209;48.410;9.054;2024-01-15T07:11:29;9.87;;;5.47;;
2396;SDS011;1209;48.410;9.054;2024-01-15T07:13:54;12.47;;;5.67;;
2396;SDS011;1209;48.410;9.054;2024-01-15T07:16:19;12.43;;;4.60;;
2396;SDS011;1209;48.410;9.054;2024-01-15T07:18:45;15.27;;;5.60;;
2396;SDS011;1209;48.410;9.054;2024-01-15T07:21:10;14.67;;;5.73;;
2396;SDS011;1209;48.410;9.054;2024-01-15T07:23:35;11.00;;;5.50;;
2396;SDS011;1209;48.410;9.054;2024-01-15T07:26:00;7.23;;;5.43;;
2396;SDS011;1209;48.410;9.054;2024-01-15T07:28:28;9.27;;;5.07;;
2396;SDS011;1209;48.410;9.054;2024-01-15T07:30:54;8.38;;;4.50;;
2396;SDS011;1209;48.410;9.054;2024-01-15T07:33:19;12.77;;;5.47;;
2396;SDS011;1209;48.410;9.054;2024-01-15T07:35:44;9.13;;;4.37;;
2396;SDS011;1209;48.410;9.054;2024-01-15T07:38:10;8.50;;;4.97;;
2396;SDS011;1209;48.410;9.054;2024-01-15T07:40:36;7.25;;;4.45;;
2396;SDS011;1209;48.410;9.054;2024-01-15T07:43:02;10.57;;;5.63;;
2396;SDS011;1209;48.410;9.054;2024-01-15T07:45:27;6.40;;;3.83;;
2396;SDS011;1209;48.410;9.054;2024-01-15T07:47:53;8.23;;;3.90;;
2396;SDS011;1209;48.410;9.054;2024-01-15T07:50:18;8.27;;;3.47;;
2396;SDS011;1209;48.410;9.054;2024-01-15T07:52:43;5.97;;;3.47;;
2396;SDS011;1209;48.410;9.054;2024-01-15T07:55:09;8.90;;;3.90;;
2396;SDS011;1209;48.410;9.054;2024-01-15T07:57:34;9.30;;;3.97;;
2396;SDS011;1209;48.410;9.054;2024-01-15T08:00:00;4.82;;;3.55;;
2396;SDS011;1209;48.410;9.054;2024-01-15T08:02:26;6.70;;;3.97;;
2396;SDS011;1209;48.410;9.054;2024-01-15T08:04:52;3.70;;;2.90;;
2396;SDS011;1209;48.410;9.054;2024-01-15T08:07:17;8.53;;;2.67;;
2396;SDS011;1209;48.410;9.054;2024-01-15T08:09:42;7.00;;;4.03;;
2396;SDS011;1209;48.410;9.054;2024-01-15T08:12:08;6.30;;;3.50;;
2396;SDS011;1209;48.410;9.054;2024-01-15T08:14:35;6.32;;;3.72;;
2396;SDS011;1209;48.410;9.054;2024-01-15T08:17:00;5.47;;;3.30;;
2396;SDS011;1209;48.410;9.054;2024-01-15T08:19:26;12.90;;;3.97;;
2396;SDS011;1209;48.410;9.054;2024-01-15T08:21:51;5.27;;;2.90;;
2396;SDS011;1209;48.410;9.054;2024-01-15T08:24:18;5.82;;;3.30;;
2396;SDS011;1209;48.410;9.054;2024-01-15T08:26:43;3.83;;;2.93;;
2396;SDS011;1209;48.410;9.054;2024-01-15T08:29:08;6.57;;;3.13;;
2396;SDS011;1209;48.410;9.054;2024-01-15T08:31:34;3.53;;;2.90;;
2396;SDS011;1209;48.410;9.054;2024-01-15T08:33:59;3.77;;;3.43;;
2396;SDS011;1209;48.410;9.054;2024-01-15T08:36:26;2.75;;;2.55;;
2396;SDS011;1209;48.410;9.054;2024-01-15T08:38:53;4.90;;;2.78;;
2396;SDS011;1209;48.410;9.054;2024-01-15T08:41:18;7.13;;;3.00;;
2396;SDS011;1209;48.410;9.054;2024-01-15T08:43:43;3.37;;;2.93;;
2396;SDS011;1209;48.410;9.054;2024-01-15T08:46:09;5.90;;;2.67;;
2396;SDS011;1209;48.410;9.054;2024-01-15T08:48:34;6.77;;;2.73;;
2396;SDS011;1209;48.410;9.054;2024-01-15T08:50:59;4.37;;;3.27;;
2396;SDS011;1209;48.410;9.054;2024-01-15T08:53:24;4.27;;;3.13;;
2396;SDS011;1209;48.410;9.054;2024-01-15T08:55:50;2.40;;;2.27;;
2396;SDS011;1209;48.410;9.054;2024-01-15T08:58:16;2.73;;;2.50;;
2396;SDS011;1209;48.410;9.054;2024-01-15T09:00:41;2.77;;;2.40;;
2396;SDS011;1209;48.410;9.054;2024-01-15T09:03:07;3.40;;;3.10;;
2396;SDS011;1209;48.410;9.054;2024-01-15T09:05:33;6.47;;;3.13;;
2396;SDS011;1209;48.410;9.054;2024-01-15T09:07:59;4.33;;;3.33;;
2396;SDS011;1209;48.410;9.054;2024-01-15T09:10:24;2.60;;;2.40;;
2396;SDS011;1209;48.410;9.054;2024-01-15T09:12:49;2.70;;;2.50;;
2396;SDS011;1209;48.410;9.054;2024-01-15T09:15:15;4.00;;;2.83;;
2396;SDS011;1209;48.410;9.054;2024-01-15T09:17:40;2.20;;;2.10;;
2396;SDS011;1209;48.410;9.054;2024-01-15T09:20:06;4.80;;;3.37;;
2396;SDS011;1209;48.410;9.054;2024-01-15T09:22:32;3.75;;;2.97;;
2396;SDS011;1209;48.410;9.054;2024-01-15T09:24:57;2.23;;;2.07;;
2396;SDS011;1209;48.410;9.054;2024-01-15T09:27:23;4.30;;;2.90;;
2396;SDS011;1209;48.410;9.054;2024-01-15T09:29:51;3.08;;;2.38;;
2396;SDS011;1209;48.410;9.054;2024-01-15T09:32:16;2.73;;;2.40;;
2396;SDS011;1209;48.410;9.054;2024-01-15T09:34:42;2.60;;;2.40;;
2396;SDS011;1209;48.410;9.054;2024-01-15T09:37:07;3.37;;;2.83;;
2396;SDS011;1209;48.410;9.054;2024-01-15T09:39:32;2.60;;;2.00;;
2396;SDS011;1209;48.410;9.054;2024-01-15T09:41:58;2.90;;;2.70;;
2396;SDS011;1209;48.410;9.054;2024-01-15T09:44:24;2.53;;;2.33;;
2396;SDS011;1209;48.410;9.054;2024-01-15T09:46:51;3.88;;;2.63;;
2396;SDS011;1209;48.410;9.054;2024-01-15T09:49:17;3.63;;;2.77;;
2396;SDS011;1209;48.410;9.054;2024-01-15T09:51:42;2.80;;;2.57;;
2396;SDS011;1209;48.410;9.054;2024-01-15T09:54:08;3.37;;;3.07;;
2396;SDS011;1209;48.410;9.054;2024-01-15T09:56:34;2.78;;;2.45;;
2396;SDS011;1209;48.410;9.054;2024-01-15T09:59:00;2.70;;;2.50;;
2396;SDS011;1209;48.410;9.054;2024-01-15T10:01:26;5.70;;;3.40;;
2396;SDS011;1209;48.410;9.054;2024-01-15T10:03:51;3.20;;;2.90;;
2396;SDS011;1209;48.410;9.054;2024-01-15T10:06:18;4.93;;;2.88;;
2396;SDS011;1209;48.410;9.054;2024-01-15T10:08:47;7.00;;;3.23;;
2396;SDS011;1209;48.410;9.054;2024-01-15T10:11:13;2.60;;;2.40;;
2396;SDS011;1209;48.410;9.054;2024-01-15T10:13:39;3.67;;;2.63;;
2396;SDS011;1209;48.410;9.054;2024-01-15T10:16:05;2.77;;;2.57;;
2396;SDS011;1209;48.410;9.054;2024-01-15T10:18:31;4.97;;;2.53;;
2396;SDS011;1209;48.410;9.054;2024-01-15T10:20:57;4.80;;;2.72;;
2396;SDS011;1209;48.410;9.054;2024-01-15T10:23:23;5.23;;;3.20;;
2396;SDS011;1209;48.410;9.054;2024-01-15T10:25:48;2.70;;;2.50;;
2396;SDS011;1209;48.410;9.054;2024-01-15T10:28:14;2.43;;;2.23;;
2396;SDS011;1209;48.410;9.054;2024-01-15T10:30:39;3.30;;;3.00;;
2396;SDS011;1209;48.410;9.054;2024-01-15T10:33:04;4.00;;;2.40;;
2396;SDS011;1209;48.410;9.054;2024-01-15T10:35:30;3.50;;;2.50;;
2396;SDS011;1209;48.410;9.054;2024-01-15T10:37:57;3.53;;;3.05;;
2396;SDS011;1209;48.410;9.054;2024-01-15T10:40:23;3.03;;;2.50;;
2396;SDS011;1209;48.410;9.054;2024-01-15T10:42:48;10.83;;;3.17;;
2396;SDS011;1209;48.410;9.054;2024-01-15T10:45:14;2.53;;;2.33;;
2396;SDS011;1209;48.410;9.054;2024-01-15T10:47:40;4.50;;;2.80;;
2396;SDS011;1209;48.410;9.054;2024-01-15T10:50:06;3.67;;;1.92;;
2396;SDS011;1209;48.410;9.054;2024-01-15T10:52:33;2.60;;;2.03;;
2396;SDS011;1209;48.410;9.054;2024-01-15T10:55:00;2.55;;;2.35;;
2396;SDS011;1209;48.410;9.054;2024-01-15T10:57:27;3.95;;;2.80;;
2396;SDS011;1209;48.410;9.054;2024-01-15T10:59:54;3.17;;;2.45;;
2396;SDS011;1209;48.410;9.054;2024-01-15T11:02:19;4.03;;;2.77;;
2396;SDS011;1209;48.410;9.054;2024-01-15T11:04:45;3.17;;;2.25;;
2396;SDS011;1209;48.410;9.054;2024-01-15T11:07:11;4.87;;;2.60;;
2396;SDS011;1209;48.410;9.054;2024-01-15T11:09:36;3.30;;;2.70;;
2396;SDS011;1209;48.410;9.054;2024-01-15T11:12:09;3.13;;;2.57;;
2396;SDS011;1209;48.410;9.054;2024-01-15T11:14:40;2.78;;;2.58;;
2396;SDS011;1209;48.410;9.054;2024-01-15T11:17:13;2.15;;;2.05;;
2396;SDS011;1209;48.410;9.054;2024-01-15T11:19:46;3.88;;;2.80;;
2396;SDS011;1209;48.410;9.054;2024-01-15T11:24:57;2.65;;;1.65;;
2396;SDS011;1209;48.410;9.054;2024-01-15T11:27:43;2.78;;;2.50;;
2396;SDS011;1209;48.410;9.054;2024-01-15T11:30:12;4.18;;;2.15;;
2396;SDS011;1209;48.410;9.054;2024-01-15T11:32:38;2.00;;;1.90;;
2396;SDS011;1209;48.410;9.054;2024-01-15T11:35:07;5.25;;;2.58;;
2396;SDS011;1209;48.410;9.054;2024-01-15T11:40:19;2.65;;;2.45;;
2396;SDS011;1209;48.410;9.054;2024-01-15T11:42:45;2.03;;;1.83;;
2396;SDS011;1209;48.410;9.054;2024-01-15T11:45:11;2.87;;;2.17;;
2396;SDS011;1209;48.410;9.054;2024-01-15T11:50:32;2.35;;;2.10;;
2396;SDS011;1209;48.410;9.054;2024-01-15T11:52:59;3.88;;;2.05;;
2396;SDS011;1209;48.410;9.054;2024-01-15T11:55:27;2.58;;;2.38;;
2396;SDS011;1209;48.410;9.054;2024-01-15T11:57:55;2.17;;;2.08;;
2396;SDS011;1209;48.410;9.054;2024-01-15T12:00:22;2.25;;;2.05;;
2396;SDS011;1209;48.410;9.054;2024-01-15T12:02:48;4.82;;;2.63;;
2396;SDS011;1209;48.410;9.054;2024-01-15T12:05:16;3.17;;;2.47;;
2396;SDS011;1209;48.410;9.054;2024-01-15T12:07:43;3.08;;;2.20;;
2396;SDS011;1209;48.410;9.054;2024-01-15T12:10:10;5.72;;;2.53;;
2396;SDS011;1209;48.410;9.054;2024-01-15T12:12:42;2.08;;;1.98;;
2396;SDS011;1209;48.410;9.054;2024-01-15T12:15:20;5.38;;;3.35;;
2396;SDS011;1209;48.410;9.054;2024-01-15T12:17:45;3.40;;;2.47;;
2396;SDS011;1209;48.410;9.054;2024-01-15T12:20:12;2.08;;;1.98;;
2396;SDS011;1209;48.410;9.054;2024-01-15T12:22:38;2.70;;;2.40;;
2396;SDS011;1209;48.410;9.054;2024-01-15T12:25:03;2.50;;;2.30;;
2396;SDS011;1209;48.410;9.054;2024-01-15T12:27:29;4.40;;;3.10;;
2396;SDS011;1209;48.410;9.054;2024-01-15T12:29:55;3.67;;;2.93;;
2396;SDS011;1209;48.410;9.054;2024-01-15T12:32:20;4.43;;;2.47;;
2396;SDS011;1209;48.410;9.054;2024-01-15T12:34:46;3.00;;;2.25;;
2396;SDS011;1209;48.410;9.054;2024-01-15T12:37:14;5.72;;;2.88;;
2396;SDS011;1209;48.410;9.054;2024-01-15T12:39:43;2.53;;;2.33;;
2396;SDS011;1209;48.410;9.054;2024-01-15T12:42:09;2.75;;;2.53;;
2396;SDS011;1209;48.410;9.054;2024-01-15T12:44:35;3.67;;;2.90;;
2396;SDS011;1209;48.410;9.054;2024-01-15T12:47:00;5.63;;;2.80;;
2396;SDS011;1209;48.410;9.054;2024-01-15T12:49:26;5.00;;;2.47;;
2396;SDS011;1209;48.410;9.054;2024-01-15T12:51:52;4.47;;;2.90;;
2396;SDS011;1209;48.410;9.054;2024-01-15T12:54:26;2.92;;;2.67;;
2396;SDS011;1209;48.410;9.054;2024-01-15T12:56:51;4.07;;;3.10;;
2396;SDS011;1209;48.410;9.054;2024-01-15T12:59:17;3.92;;;2.55;;
2396;SDS011;1209;48.410;9.054;2024-01-15T13:01:43;4.65;;;3.20;;
2396;SDS011;1209;48.410;9.054;2024-01-15T13:04:09;5.67;;;3.37;;
2396;SDS011;1209;48.410;9.054;2024-01-15T13:06:35;2.47;;;2.33;;
2396;SDS011;1209;48.410;9.054;2024-01-15T13:09:00;3.40;;;2.90;;
2396;SDS011;1209;48.410;9.054;2024-01-15T13:11:26;5.30;;;2.57;;
2396;SDS011;1209;48.410;9.054;2024-01-15T13:13:52;3.30;;;3.00;;
2396;SDS011;1209;48.410;9.054;2024-01-15T13:16:17;4.80;;;3.00;;
2396;SDS011;1209;48.410;9.054;2024-01-15T13:18:44;2.55;;;2.35;;
2396;SDS011;1209;48.410;9.054;2024-01-15T13:21:10;3.10;;;2.80;;
2396;SDS011;1209;48.410;9.054;2024-01-15T13:23:35;2.30;;;2.10;;
2396;SDS011;1209;48.410;9.054;2024-01-15T13:26:02;4.05;;;2.97;;
2396;SDS011;1209;48.410;9.054;2024-01-15T13:28:27;2.97;;;2.50;;
2396;SDS011;1209;48.410;9.054;2024-01-15T13:30:52;5.60;;;2.77;;
2396;SDS011;1209;48.410;9.054;2024-01-15T13:33:18;4.53;;;3.40;;
2396;SDS011;1209;48.410;9.054;2024-01-15T13:35:43;3.93;;;3.17;;
2396;SDS011;1209;48.410;9.054;2024-01-15T13:38:08;3.20;;;2.83;;
2396;SDS011;1209;48.410;9.054;2024-01-15T13:40:33;3.77;;;3.13;;
2396;SDS011;1209;48.410;9.054;2024-01-15T13:42:59;5.00;;;3.20;;
2396;SDS011;1209;48.410;9.054;2024-01-15T13:45:24;15.00;;;3.30;;
2396;SDS011;1209;48.410;9.054;2024-01-15T13:47:49;4.00;;;2.90;;
2396;SDS011;1209;48.410;9.054;2024-01-15T13:50:15;5.40;;;2.97;;
2396;SDS011;1209;48.410;9.054;2024-01-15T13:52:40;5.43;;;3.40;;
2396;SDS011;1209;48.410;9.054;2024-01-15T13:55:05;5.47;;;4.13;;
2396;SDS011;1209;48.410;9.054;2024-01-15T13:57:33;3.85;;;3.10;;
2396;SDS011;1209;48.410;9.054;2024-01-15T13:59:59;4.60;;;3.00;;
2396;SDS011;1209;48.410;9.054;2024-01-15T14:02:25;4.90;;;3.00;;
2396;SDS011;1209;48.410;9.054;2024-01-15T14:04:50;5.90;;;3.13;;
2396;SDS011;1209;48.410;9.054;2024-01-15T14:07:15;4.00;;;3.60;;
2396;SDS011;1209;48.410;9.054;2024-01-15T14:09:40;7.60;;;3.70;;
2396;SDS011;1209;48.410;9.054;2024-01-15T14:12:06;6.40;;;4.20;;
2396;SDS011;1209;48.410;9.054;2024-01-15T14:14:31;4.80;;;3.20;;
2396;SDS011;1209;48.410;9.054;2024-01-15T14:16:56;5.93;;;3.10;;
2396;SDS011;1209;48.410;9.054;2024-01-15T14:19:22;5.70;;;3.03;;
2396;SDS011;1209;48.410;9.054;2024-01-15T14:21:47;4.17;;;3.13;;
2396;SDS011;1209;48.410;9.054;2024-01-15T14:24:12;3.63;;;3.23;;
2396;SDS011;1209;48.410;9.054;2024-01-15T14:26:38;8.10;;;4.93;;
2396;SDS011;1209;48.410;9.054;2024-01-15T14:29:03;6.23;;;3.90;;
2396;SDS011;1209;48.410;9.054;2024-01-15T14:31:28;4.50;;;3.43;;
2396;SDS011;1209;48.410;9.054;2024-01-15T14:33:54;3.40;;;3.10;;
2396;SDS011;1209;48.410;9.054;2024-01-15T14:36:20;3.63;;;3.08;;
2396;SDS011;1209;48.410;9.054;2024-01-15T14:38:45;4.47;;;3.10;;
2396;SDS011;1209;48.410;9.054;2024-01-15T14:41:11;6.03;;;3.87;;
2396;SDS011;1209;48.410;9.054;2024-01-15T14:43:36;7.67;;;4.10;;
2396;SDS011;1209;48.410;9.054;2024-01-15T14:46:01;6.47;;;3.40;;
2396;SDS011;1209;48.410;9.054;2024-01-15T14:48:26;5.27;;;3.80;;
2396;SDS011;1209;48.410;9.054;2024-01-15T14:50:52;7.07;;;3.20;;
2396;SDS011;1209;48.410;9.054;2024-01-15T14:53:17;5.83;;;3.23;;
2396;SDS011;1209;48.410;9.054;2024-01-15T14:55:43;5.53;;;3.40;;
2396;SDS011;1209;48.410;9.054;2024-01-15T14:58:08;5.57;;;3.73;;
2396;SDS011;1209;48.410;9.054;2024-01-15T15:00:33;10.20;;;4.40;;
2396;SDS011;1209;48.410;9.054;2024-01-15T15:02:59;4.87;;;3.30;;
2396;SDS011;1209;48.410;9.054;2024-01-15T15:05:24;5.03;;;3.60;;
2396;SDS011;1209;48.410;9.054;2024-01-15T15:07:50;6.20;;;3.50;;
2396;SDS011;1209;48.410;9.054;2024-01-15T15:10:16;3.50;;;3.20;;